Stations météo

réclame
Mon MeteoGroup
Nordkoster, Suède (2500): Température de l'air: 19.05.2018 12:00:00 - 25.05.2018 12:00:00 (CEST)Nordkoster, Suède (2500): Vitesse du vent & gusts: 19.05.2018 12:00:00 - 25.05.2018 12:00:00 (CEST)Nordkoster, Suède (2500): Direction du vent: 19.05.2018 12:00:00 - 25.05.2018 12:00:00 (CEST)Nordkoster, Suède (2500): reduced air pressure: 19.05.2018 12:00:00 - 25.05.2018 12:00:00 (CEST)Nordkoster, Suède (2500): visibility: 19.05.2018 12:00:00 - 25.05.2018 12:00:00 (CEST)Nordkoster, Suède (2500): Quantités de précipitations: 19.05.2018 12:00:00 - 25.05.2018 12:00:00 (CEST)
Date & Time tt [°C] ff [km/h] ff [knt] fx [km/h] fx [knt] dd ppp [hPa] vv [km] rr [mm]
25.05.2018 12:00:00 21,5 7 4 12 6 WNW 1027,9 34 0,0
25.05.2018 11:00:00 22,4 4 2 9 5 NW 1027,9 39 0,0
25.05.2018 10:00:00 21,1 4 2 10 6 NW 1027,9 41 0,0
25.05.2018 09:00:00 19,9 4 2 9 5 WNW 1027,9 44 0,0
25.05.2018 08:00:00 19,5 3 2 8 4 NNE 1027,7 39 0,0
25.05.2018 07:00:00 17,1 4 2 10 6 NE 1027,5 36 0,0
25.05.2018 06:00:00 15,3 7 4 9 5 NE 1027,2 43 0,0
25.05.2018 05:00:00 14,7 6 3 11 6 N 1027,2 45 0,0
25.05.2018 04:00:00 14,9 9 5 11 6 NE 1027,0 42 0,0
25.05.2018 03:00:00 15,9 4 2 9 5 WNW 1027,2 46 0,0
25.05.2018 02:00:00 15,6 8 4 10 5 E 1027,3 42 0,0
25.05.2018 01:00:00 16,4 7 4 9 5 E 1027,3 41 0,0
25.05.2018 00:00:00 17,0 8 4 8 5 E 1027,3 46 0,0
24.05.2018 23:00:00 18,2 4 2 4 2 ESE 1027,3 50 0,0
24.05.2018 22:00:00 18,0 0 0 6 4 N 1027,2 48 0,0
24.05.2018 21:00:00 18,5 6 4 9 5 SSW 1027,1 49 0,0
24.05.2018 20:00:00 20,0 5 3 14 8 SW 1027,1 47 0,0
24.05.2018 19:00:00 20,5 9 5 16 9 SW 1027,2 43 0,0
24.05.2018 18:00:00 21,4 10 5 18 10 SW 1027,4 45 0,0
24.05.2018 17:00:00 20,9 13 7 18 10 SSW 1027,8 31 0,0
24.05.2018 16:00:00 22,3 11 6 18 10 W 1027,9 41 0,0
24.05.2018 15:00:00 21,2 14 8 21 12 W 1028,3 34 0,0
24.05.2018 14:00:00 20,9 16 8 22 12 WNW 1028,6 36 0,0
24.05.2018 13:00:00 20,7 13 7 19 11 WNW 1029,0 30 0,0
24.05.2018 12:00:00 20,7 10 5 16 8 NW 1029,4 29 0,0
24.05.2018 11:00:00 20,2 11 6 16 9 NW 1029,6 32 0,0
24.05.2018 10:00:00 19,6 7 4 15 8 NNE 1029,7 34 0,0
24.05.2018 09:00:00 18,4 7 4 11 6 NNW 1029,7 35 0,0
24.05.2018 08:00:00 17,1 6 3 9 5 ENE 1029,3 40 0,0
24.05.2018 07:00:00 16,2 4 2 6 3 NE 1029,0 41 0,0
24.05.2018 06:00:00 14,6 4 2 6 3 ENE 1028,9 39 0,0
24.05.2018 05:00:00 14,1 4 2 9 5 E 1028,8 41 0,0
24.05.2018 04:00:00 13,7 9 5 10 5 ESE 1028,7 32 0,0
24.05.2018 03:00:00 14,1 9 5 10 5 SE 1028,5 28 0,0
24.05.2018 02:00:00 14,7 5 3 6 3 SE 1028,2 20 0,0
24.05.2018 01:00:00 15,8 3 2 6 3 SE 1028,0 24 0,0
24.05.2018 00:00:00 16,6 4 2 5 3 SSE 1027,6 32 0,0
23.05.2018 23:00:00 16,5 0 0 3 2 N 1027,5 27 0,0
23.05.2018 22:00:00 16,6 3 2 9 5 SSW 1027,3 24 0,0
23.05.2018 21:00:00 17,9 6 3 12 7 W 1026,7 25 0,0
23.05.2018 20:00:00 19,0 8 4 17 9 WSW 1026,4 32 0,0
23.05.2018 19:00:00 20,1 9 5 16 8 SW 1026,2 37 0,0
23.05.2018 18:00:00 20,7 10 5 18 10 WSW 1026,0 48 0,0
23.05.2018 17:00:00 20,9 13 7 19 10 WSW 1025,9 33 0,0
23.05.2018 16:00:00 20,9 14 7 18 10 WSW 1025,9 35 0,0
23.05.2018 15:00:00 22,0 7 4 13 7 SW 1025,8 32 0,0
23.05.2018 14:00:00 20,1 9 5 14 7 WNW 1025,7 30 0,0
23.05.2018 13:00:00 18,9 7 4 14 8 W 1025,5 35 0,0
23.05.2018 12:00:00 18,0 9 5 14 8 WNW 1025,0 32 0,0
23.05.2018 11:00:00 18,3 7 4 13 7 WNW 1024,5 30 0,0
23.05.2018 10:00:00 17,6 8 5 14 7 WNW 1024,1 29 0,0
23.05.2018 09:00:00 17,2 4 2 10 5 E 1023,6 36 0,0
23.05.2018 08:00:00 15,5 5 3 11 6 E 1023,0 38 0,0
23.05.2018 07:00:00 14,5 8 5 12 7 ENE 1022,4 50 0,0
23.05.2018 06:00:00 13,3 10 5 18 10 NE 1021,8 34 0,0
23.05.2018 05:00:00 13,1 9 5 12 7 SSE 1020,9 46 0,0
23.05.2018 04:00:00 12,8 9 5 11 6 SSE 1020,4 45 0,0
23.05.2018 03:00:00 14,1 10 5 11 6 S 1020,0 50 0,0
23.05.2018 02:00:00 14,9 6 3 7 4 S 1019,8 50 0,0
23.05.2018 01:00:00 14,5 3 2 8 5 SE 1019,7 50 0,0
23.05.2018 00:00:00 15,0 8 4 10 5 S 1019,3 45 0,0
22.05.2018 23:00:00 15,4 9 5 11 6 S 1019,0 41 0,0
22.05.2018 22:00:00 15,9 9 5 10 6 SW 1018,8 50 0,0
22.05.2018 21:00:00 16,9 8 4 13 7 SW 1018,6 50 0,0
22.05.2018 20:00:00 17,9 10 5 19 10 SW 1018,4 45 0,0
22.05.2018 19:00:00 18,2 12 7 20 11 SW 1018,4 44 0,0
22.05.2018 18:00:00 19,1 11 6 22 12 WSW 1018,4 40 0,0
22.05.2018 17:00:00 18,2 16 9 25 13 W 1018,5 44 0,0
22.05.2018 16:00:00 18,9 13 7 22 12 W 1018,6 39 0,0
22.05.2018 15:00:00 18,5 16 9 25 14 WNW 1018,7 31 0,0
22.05.2018 14:00:00 18,2 16 8 23 12 WNW 1019,1 30 0,0
22.05.2018 13:00:00 18,5 14 8 19 10 WNW 1019,4 34 0,0
22.05.2018 12:00:00 18,3 14 7 18 10 WNW 1019,8 36 0,0
22.05.2018 11:00:00 18,2 10 5 13 7 W 1020,1 29 0,0
22.05.2018 10:00:00 17,4 7 4 10 5 E 1020,4 44 0,0
22.05.2018 09:00:00 16,1 5 3 8 4 ENE 1020,6 43 0,0
22.05.2018 08:00:00 15,2 5 3 8 4 ENE 1020,9 46 0,0
22.05.2018 07:00:00 13,6 5 3 8 4 E 1021,2 44 0,0
22.05.2018 06:00:00 12,5 7 4 12 6 NNE 1021,3 44 0,0
22.05.2018 05:00:00 11,9 8 4 10 5 NE 1021,5 49 0,0
22.05.2018 04:00:00 12,3 6 3 9 5 E 1021,6 50 0,0
22.05.2018 03:00:00 12,4 5 3 10 5 E 1022,1 50 0,0
22.05.2018 02:00:00 12,7 5 3 8 4 ENE 1022,3 44 0,0
22.05.2018 01:00:00 13,9 3 1 6 3 NE 1022,6 47 0,0
22.05.2018 00:00:00 13,7 5 3 7 4 NE 1023,1 36 0,0
21.05.2018 23:00:00 14,0 5 3 6 3 ENE 1023,3 48 0,0
21.05.2018 22:00:00 15,1 3 1 6 3 ESE 1023,6 47 0,0
21.05.2018 21:00:00 15,1 3 2 7 4 SE 1023,8 50 0,0
21.05.2018 20:00:00 15,9 2 1 8 4 SE 1024,0 47 0,0
21.05.2018 19:00:00 16,3 6 4 15 8 SSW 1024,6 46 0,0
21.05.2018 18:00:00 16,8 9 5 18 10 SW 1025,1 37 0,0
21.05.2018 17:00:00 17,3 11 6 16 9 SW 1025,4 26 0,0
21.05.2018 16:00:00 17,6 10 6 18 10 WSW 1025,7 35 0,0
21.05.2018 15:00:00 17,0 12 7 22 12 WSW 1026,2 29 0,0
21.05.2018 14:00:00 17,2 14 8 22 12 W 1026,6 23 0,0
21.05.2018 13:00:00 17,6 13 7 21 11 SW 1026,9 31 0,0
21.05.2018 12:00:00 18,2 12 6 22 12 SW 1027,2 26 0,0
21.05.2018 11:00:00 17,2 17 9 21 11 SSW 1027,6 21 0,0
21.05.2018 10:00:00 16,7 14 8 19 10 S 1027,7 29 0,0
21.05.2018 09:00:00 17,0 13 7 19 10 S 1027,7 32 0,0
21.05.2018 08:00:00 16,0 9 5 14 7 S 1027,7 42 0,0
21.05.2018 07:00:00 14,8 10 5 16 8 SSE 1027,5 35 0,0
21.05.2018 06:00:00 13,6 12 6 20 11 S 1027,5 40 0,0
21.05.2018 05:00:00 12,8 10 5 21 12 SSE 1027,4 28 0,0
21.05.2018 04:00:00 13,6 15 8 22 12 SSE 1027,1 14 0,0
21.05.2018 03:00:00 13,9 11 6 18 10 S 1026,9 10 0,0
21.05.2018 02:00:00 14,1 14 8 18 10 SSW 1026,7 10 0,0
21.05.2018 01:00:00 14,0 14 7 18 10 S 1026,7 12 0,0
21.05.2018 00:00:00 14,2 13 7 19 10 S 1026,7 15 0,0
20.05.2018 23:00:00 14,5 15 8 21 11 S 1026,7 22 0,0
20.05.2018 22:00:00 14,7 14 8 23 12 S 1026,8 28 0,0
20.05.2018 21:00:00 15,1 17 9 24 13 SSW 1026,6 42 0,0
20.05.2018 20:00:00 15,8 17 9 25 13 S 1026,4 47 0,0
20.05.2018 19:00:00 16,0 19 10 26 14 SSW 1026,5 43 0,0
20.05.2018 18:00:00 16,9 16 9 29 15 SSW 1026,6 40 0,0
20.05.2018 17:00:00 16,9 20 11 29 16 S 1026,9 39 0,0
20.05.2018 16:00:00 17,6 20 11 30 16 S 1027,0 43 0,0
20.05.2018 15:00:00 17,6 19 10 27 14 S 1027,1 42 0,0
20.05.2018 14:00:00 17,8 17 9 33 18 S 1027,3 37 0,0
20.05.2018 13:00:00 17,1 24 13 32 18 SSW 1027,1 34 0,0
20.05.2018 12:00:00 17,3 22 12 29 16 S 1027,2 33 0,0
20.05.2018 11:00:00 16,3 20 11 28 15 SSW 1027,0 38 0,0
20.05.2018 10:00:00 15,9 20 11 28 15 SSW 1026,7 39 0,0
20.05.2018 09:00:00 15,7 16 9 24 13 S 1026,0 37 0,0
20.05.2018 08:00:00 15,1 19 11 27 15 S 1025,4 33 0,0
20.05.2018 07:00:00 14,4 17 9 25 14 SSE 1024,9 35 0,0
20.05.2018 06:00:00 13,5 14 8 20 11 SSE 1024,9 41 0,0
20.05.2018 05:00:00 13,4 16 9 23 12 S 1024,5 37 0,0
20.05.2018 04:00:00 13,3 16 9 25 13 SSE 1024,1 38 0,0
20.05.2018 03:00:00 13,2 16 9 22 12 SSE 1024,1 36 0,0
20.05.2018 02:00:00 12,9 12 7 16 9 S 1024,1 42 0,0
20.05.2018 01:00:00 12,7 12 6 16 9 S 1023,8 44 0,0
20.05.2018 00:00:00 12,8 10 5 13 7 S 1023,6 50 0,0
19.05.2018 23:00:00 13,7 8 5 11 6 S 1023,6 50 0,0
19.05.2018 22:00:00 14,1 8 4 13 7 SSW 1023,4 42 0,0
19.05.2018 21:00:00 15,0 10 5 14 7 S 1022,9 46 0,0
19.05.2018 20:00:00 15,7 9 5 18 10 SSW 1022,9 40 0,0
19.05.2018 19:00:00 17,0 9 5 15 8 SSW 1023,1 45 0,0
19.05.2018 18:00:00 17,6 9 5 21 11 SW 1023,1 38 0,0
19.05.2018 17:00:00 18,1 9 5 16 9 WSW 1023,1 37 0,0
19.05.2018 16:00:00 17,3 9 5 20 11 W 1023,3 41 0,0
19.05.2018 15:00:00 16,8 12 6 23 12 W 1023,4 35 0,0
19.05.2018 14:00:00 16,9 13 7 22 12 W 1023,5 28 0,0
19.05.2018 13:00:00 15,7 14 7 19 11 W 1023,5 39 0,0
19.05.2018 12:00:00 16,0 13 7 21 12 W 1023,6 37 0,0

tt = Température de l'air
ff = Vitesse du vent
fx = gusts
dd = Direction du vent
ppp = reduced air pressure
vv = visibility
rr = Quantités de précipitations

stations d'obs. à proximité